sensor_id;sensor_type;location;lat;lon;timestamp;pressure;altitude;pressure_sealevel;temperature;humidity
35952;BME280;22035;51.406;16.194;2023-01-28T00:02:16;100786.46;;;25.35;18.96
35952;BME280;22035;51.406;16.194;2023-01-28T00:04:42;100781.62;;;25.33;18.98
35952;BME280;22035;51.406;16.194;2023-01-28T00:07:08;100784.73;;;25.34;18.97
35952;BME280;22035;51.406;16.194;2023-01-28T00:09:34;100783.93;;;25.38;18.95
35952;BME280;22035;51.406;16.194;2023-01-28T00:12:00;100784.96;;;25.31;19.00
35952;BME280;22035;51.406;16.194;2023-01-28T00:14:26;100786.33;;;25.35;18.96
35952;BME280;22035;51.406;16.194;2023-01-28T00:16:51;100786.02;;;25.35;19.00
35952;BME280;22035;51.406;16.194;2023-01-28T00:19:17;100788.06;;;25.38;18.94
35952;BME280;22035;51.406;16.194;2023-01-28T00:21:43;100787.82;;;25.38;18.94
35952;BME280;22035;51.406;16.194;2023-01-28T00:24:08;100788.86;;;25.33;19.01
35952;BME280;22035;51.406;16.194;2023-01-28T00:26:35;100785.30;;;25.35;18.96
35952;BME280;22035;51.406;16.194;2023-01-28T00:29:01;100783.43;;;25.33;18.98
35952;BME280;22035;51.406;16.194;2023-01-28T00:31:28;100781.47;;;25.35;18.96
35952;BME280;22035;51.406;16.194;2023-01-28T00:33:55;100782.30;;;25.35;18.96
35952;BME280;22035;51.406;16.194;2023-01-28T00:36:23;100783.55;;;25.36;18.95
35952;BME280;22035;51.406;16.194;2023-01-28T00:38:50;100782.29;;;25.38;18.94
35952;BME280;22035;51.406;16.194;2023-01-28T00:41:18;100784.91;;;25.38;18.94
35952;BME280;22035;51.406;16.194;2023-01-28T00:43:44;100783.02;;;25.36;18.95
35952;BME280;22035;51.406;16.194;2023-01-28T00:46:10;100781.39;;;25.37;18.95
35952;BME280;22035;51.406;16.194;2023-01-28T00:48:37;100777.65;;;25.33;18.98
35952;BME280;22035;51.406;16.194;2023-01-28T00:51:04;100775.54;;;25.34;18.97
35952;BME280;22035;51.406;16.194;2023-01-28T00:53:30;100769.43;;;25.34;18.97
35952;BME280;22035;51.406;16.194;2023-01-28T00:55:56;100770.03;;;25.33;18.98
35952;BME280;22035;51.406;16.194;2023-01-28T00:58:21;100770.84;;;25.39;18.91
35952;BME280;22035;51.406;16.194;2023-01-28T01:00:47;100768.25;;;25.38;18.92
35952;BME280;22035;51.406;16.194;2023-01-28T01:03:13;100767.78;;;25.36;18.95
35952;BME280;22035;51.406;16.194;2023-01-28T01:05:39;100764.60;;;25.37;18.93
35952;BME280;22035;51.406;16.194;2023-01-28T01:08:04;100761.06;;;25.34;18.94
35952;BME280;22035;51.406;16.194;2023-01-28T01:10:31;100761.28;;;25.33;18.97
35952;BME280;22035;51.406;16.194;2023-01-28T01:12:56;100764.22;;;25.32;18.98
35952;BME280;22035;51.406;16.194;2023-01-28T01:15:22;100769.73;;;25.31;18.97
35952;BME280;22035;51.406;16.194;2023-01-28T01:17:48;100775.05;;;25.37;18.92
35952;BME280;22035;51.406;16.194;2023-01-28T01:20:16;100777.88;;;25.35;18.96
35952;BME280;22035;51.406;16.194;2023-01-28T01:22:42;100779.06;;;25.38;18.91
35952;BME280;22035;51.406;16.194;2023-01-28T01:25:09;100780.72;;;25.33;18.95
35952;BME280;22035;51.406;16.194;2023-01-28T01:27:35;100780.62;;;25.36;18.92
35952;BME280;22035;51.406;16.194;2023-01-28T01:30:00;100783.69;;;25.34;18.96
35952;BME280;22035;51.406;16.194;2023-01-28T01:32:28;100787.36;;;25.33;18.95
35952;BME280;22035;51.406;16.194;2023-01-28T01:34:54;100787.48;;;25.37;18.91
35952;BME280;22035;51.406;16.194;2023-01-28T01:37:20;100785.57;;;25.35;18.93
35952;BME280;22035;51.406;16.194;2023-01-28T01:39:46;100787.36;;;25.34;18.93
35952;BME280;22035;51.406;16.194;2023-01-28T01:42:12;100789.44;;;25.37;18.90
35952;BME280;22035;51.406;16.194;2023-01-28T01:44:54;100792.72;;;25.36;18.91
35952;BME280;22035;51.406;16.194;2023-01-28T01:47:23;100791.05;;;25.31;18.95
35952;BME280;22035;51.406;16.194;2023-01-28T01:49:49;100793.06;;;25.33;18.93
35952;BME280;22035;51.406;16.194;2023-01-28T01:52:19;100797.44;;;25.34;18.93
35952;BME280;22035;51.406;16.194;2023-01-28T01:54:50;100797.84;;;25.31;18.95
35952;BME280;22035;51.406;16.194;2023-01-28T01:57:23;100801.45;;;25.33;18.93
35952;BME280;22035;51.406;16.194;2023-01-28T01:59:51;100801.35;;;25.30;18.96
35952;BME280;22035;51.406;16.194;2023-01-28T02:02:17;100802.37;;;25.27;18.97
35952;BME280;22035;51.406;16.194;2023-01-28T02:04:44;100803.33;;;25.34;18.88
35952;BME280;22035;51.406;16.194;2023-01-28T02:07:12;100807.29;;;25.33;18.91
35952;BME280;22035;51.406;16.194;2023-01-28T02:09:38;100807.81;;;25.37;18.84
35952;BME280;22035;51.406;16.194;2023-01-28T02:12:07;100810.39;;;25.35;18.88
35952;BME280;22035;51.406;16.194;2023-01-28T02:14:37;100812.23;;;25.32;18.92
35952;BME280;22035;51.406;16.194;2023-01-28T02:17:05;100815.42;;;25.34;18.90
35952;BME280;22035;51.406;16.194;2023-01-28T02:19:36;100815.70;;;25.32;18.91
35952;BME280;22035;51.406;16.194;2023-01-28T02:22:14;100811.90;;;25.32;18.91
35952;BME280;22035;51.406;16.194;2023-01-28T02:24:54;100809.22;;;25.32;18.90
35952;BME280;22035;51.406;16.194;2023-01-28T02:27:32;100807.63;;;25.36;18.85
35952;BME280;22035;51.406;16.194;2023-01-28T02:30:06;100802.83;;;25.32;18.88
35952;BME280;22035;51.406;16.194;2023-01-28T02:32:38;100805.60;;;25.27;18.94
35952;BME280;22035;51.406;16.194;2023-01-28T02:35:11;100804.26;;;25.35;18.87
35952;BME280;22035;51.406;16.194;2023-01-28T02:37:45;100806.49;;;25.35;18.87
35952;BME280;22035;51.406;16.194;2023-01-28T02:40:15;100805.81;;;25.29;18.91
35952;BME280;22035;51.406;16.194;2023-01-28T02:42:44;100801.71;;;25.32;18.88
35952;BME280;22035;51.406;16.194;2023-01-28T02:45:16;100804.47;;;25.20;19.00
35952;BME280;22035;51.406;16.194;2023-01-28T02:47:42;100807.46;;;25.24;18.98
35952;BME280;22035;51.406;16.194;2023-01-28T02:50:11;100809.07;;;25.28;18.92
35952;BME280;22035;51.406;16.194;2023-01-28T02:52:49;100813.74;;;25.33;18.87
35952;BME280;22035;51.406;16.194;2023-01-28T02:55:22;100811.84;;;25.29;18.92
35952;BME280;22035;51.406;16.194;2023-01-28T02:57:59;100811.98;;;25.32;18.90
35952;BME280;22035;51.406;16.194;2023-01-28T03:00:30;100812.25;;;25.32;18.88
35952;BME280;22035;51.406;16.194;2023-01-28T03:03:04;100812.08;;;25.30;18.91
35952;BME280;22035;51.406;16.194;2023-01-28T03:05:34;100812.07;;;25.33;18.86
35952;BME280;22035;51.406;16.194;2023-01-28T03:08:03;100817.57;;;25.29;18.91
35952;BME280;22035;51.406;16.194;2023-01-28T03:10:30;100819.62;;;25.32;18.89
35952;BME280;22035;51.406;16.194;2023-01-28T03:12:57;100816.47;;;25.24;18.95
35952;BME280;22035;51.406;16.194;2023-01-28T03:15:25;100817.18;;;25.23;18.97
35952;BME280;22035;51.406;16.194;2023-01-28T03:17:57;100817.05;;;25.25;18.94
35952;BME280;22035;51.406;16.194;2023-01-28T03:20:27;100820.39;;;25.21;18.97
35952;BME280;22035;51.406;16.194;2023-01-28T03:22:56;100824.38;;;25.27;18.92
35952;BME280;22035;51.406;16.194;2023-01-28T03:25:26;100829.80;;;25.34;18.91
35952;BME280;22035;51.406;16.194;2023-01-28T03:27:55;100830.38;;;25.35;18.82
35952;BME280;22035;51.406;16.194;2023-01-28T03:30:24;100828.47;;;25.29;18.89
35952;BME280;22035;51.406;16.194;2023-01-28T03:32:52;100827.93;;;25.31;18.86
35952;BME280;22035;51.406;16.194;2023-01-28T03:35:22;100825.50;;;25.29;18.87
35952;BME280;22035;51.406;16.194;2023-01-28T03:37:48;100828.21;;;25.34;18.83
35952;BME280;22035;51.406;16.194;2023-01-28T03:40:14;100829.32;;;25.27;18.91
35952;BME280;22035;51.406;16.194;2023-01-28T03:42:40;100828.70;;;25.26;18.92
35952;BME280;22035;51.406;16.194;2023-01-28T03:45:06;100832.07;;;25.24;18.94
35952;BME280;22035;51.406;16.194;2023-01-28T03:47:32;100836.87;;;25.25;18.92
35952;BME280;22035;51.406;16.194;2023-01-28T03:49:58;100837.00;;;25.26;18.91
35952;BME280;22035;51.406;16.194;2023-01-28T03:52:25;100839.36;;;25.32;18.85
35952;BME280;22035;51.406;16.194;2023-01-28T03:54:51;100838.79;;;25.23;18.94
35952;BME280;22035;51.406;16.194;2023-01-28T03:57:18;100838.20;;;25.28;18.89
35952;BME280;22035;51.406;16.194;2023-01-28T03:59:44;100840.54;;;25.29;18.88
35952;BME280;22035;51.406;16.194;2023-01-28T04:02:11;100842.09;;;25.26;18.90
35952;BME280;22035;51.406;16.194;2023-01-28T04:04:37;100842.30;;;25.23;18.94
35952;BME280;22035;51.406;16.194;2023-01-28T04:07:04;100845.27;;;25.23;18.94
35952;BME280;22035;51.406;16.194;2023-01-28T04:09:30;100848.30;;;25.23;18.93
35952;BME280;22035;51.406;16.194;2023-01-28T04:11:56;100847.73;;;25.28;18.88
35952;BME280;22035;51.406;16.194;2023-01-28T04:14:21;100850.19;;;25.27;18.90
35952;BME280;22035;51.406;16.194;2023-01-28T04:16:47;100851.80;;;25.21;18.94
35952;BME280;22035;51.406;16.194;2023-01-28T04:19:13;100853.13;;;25.30;18.86
35952;BME280;22035;51.406;16.194;2023-01-28T04:21:38;100852.40;;;25.35;18.82
35952;BME280;22035;51.406;16.194;2023-01-28T04:24:05;100852.14;;;25.29;18.86
35952;BME280;22035;51.406;16.194;2023-01-28T04:26:30;100855.02;;;25.30;18.75
35952;BME280;22035;51.406;16.194;2023-01-28T04:28:56;100855.21;;;25.29;18.87
35952;BME280;22035;51.406;16.194;2023-01-28T04:31:22;100858.37;;;25.27;18.90
35952;BME280;22035;51.406;16.194;2023-01-28T04:33:48;100860.94;;;25.28;18.89
35952;BME280;22035;51.406;16.194;2023-01-28T04:36:13;100855.81;;;25.29;18.88
35952;BME280;22035;51.406;16.194;2023-01-28T04:38:39;100854.59;;;25.29;18.88
35952;BME280;22035;51.406;16.194;2023-01-28T04:41:05;100857.05;;;25.26;18.91
35952;BME280;22035;51.406;16.194;2023-01-28T04:43:31;100858.53;;;25.27;18.89
35952;BME280;22035;51.406;16.194;2023-01-28T04:45:56;100859.83;;;25.29;18.85
35952;BME280;22035;51.406;16.194;2023-01-28T04:48:22;100861.32;;;25.33;18.83
35952;BME280;22035;51.406;16.194;2023-01-28T04:50:48;100856.33;;;25.25;18.90
35952;BME280;22035;51.406;16.194;2023-01-28T04:53:13;100861.13;;;25.24;18.91
35952;BME280;22035;51.406;16.194;2023-01-28T04:55:39;100858.42;;;25.27;18.88
35952;BME280;22035;51.406;16.194;2023-01-28T04:58:05;100859.62;;;25.28;18.88
35952;BME280;22035;51.406;16.194;2023-01-28T05:00:31;100862.88;;;25.20;18.96
35952;BME280;22035;51.406;16.194;2023-01-28T05:02:56;100866.04;;;25.30;18.85
35952;BME280;22035;51.406;16.194;2023-01-28T05:05:22;100867.42;;;25.28;18.86
35952;BME280;22035;51.406;16.194;2023-01-28T05:07:50;100866.15;;;25.26;18.89
35952;BME280;22035;51.406;16.194;2023-01-28T05:10:16;100867.95;;;25.21;18.95
35952;BME280;22035;51.406;16.194;2023-01-28T05:12:43;100866.04;;;25.24;18.90
35952;BME280;22035;51.406;16.194;2023-01-28T05:15:08;100870.11;;;25.25;18.90
35952;BME280;22035;51.406;16.194;2023-01-28T05:17:34;100873.36;;;25.21;18.94
35952;BME280;22035;51.406;16.194;2023-01-28T05:20:00;100874.12;;;25.24;18.90
35952;BME280;22035;51.406;16.194;2023-01-28T05:22:26;100873.14;;;25.25;18.91
35952;BME280;22035;51.406;16.194;2023-01-28T05:24:51;100876.01;;;25.26;18.89
35952;BME280;22035;51.406;16.194;2023-01-28T05:27:17;100879.87;;;25.24;18.90
35952;BME280;22035;51.406;16.194;2023-01-28T05:29:43;100877.03;;;25.26;18.89
35952;BME280;22035;51.406;16.194;2023-01-28T05:32:08;100879.77;;;25.22;18.92
35952;BME280;22035;51.406;16.194;2023-01-28T05:34:34;100881.05;;;25.19;18.95
35952;BME280;22035;51.406;16.194;2023-01-28T05:37:00;100883.21;;;25.20;18.95
35952;BME280;22035;51.406;16.194;2023-01-28T05:39:26;100884.27;;;25.23;18.92
35952;BME280;22035;51.406;16.194;2023-01-28T05:41:51;100886.53;;;25.19;18.96
35952;BME280;22035;51.406;16.194;2023-01-28T05:44:17;100887.20;;;25.22;18.93
35952;BME280;22035;51.406;16.194;2023-01-28T05:46:43;100887.50;;;25.26;18.88
35952;BME280;22035;51.406;16.194;2023-01-28T05:49:08;100884.50;;;25.28;18.84
35952;BME280;22035;51.406;16.194;2023-01-28T05:51:34;100889.71;;;25.28;18.85
35952;BME280;22035;51.406;16.194;2023-01-28T05:54:00;100888.90;;;25.29;18.84
35952;BME280;22035;51.406;16.194;2023-01-28T05:56:25;100891.26;;;25.23;18.91
35952;BME280;22035;51.406;16.194;2023-01-28T05:58:51;100886.03;;;25.26;18.86
35952;BME280;22035;51.406;16.194;2023-01-28T06:01:17;100890.22;;;25.28;18.83
35952;BME280;22035;51.406;16.194;2023-01-28T06:03:42;100893.52;;;25.20;18.92
35952;BME280;22035;51.406;16.194;2023-01-28T06:06:08;100895.07;;;25.23;18.90
35952;BME280;22035;51.406;16.194;2023-01-28T06:08:34;100895.23;;;25.21;18.83
35952;BME280;22035;51.406;16.194;2023-01-28T06:10:59;100895.76;;;25.22;18.90
35952;BME280;22035;51.406;16.194;2023-01-28T06:13:25;100900.30;;;25.16;18.94
35952;BME280;22035;51.406;16.194;2023-01-28T06:15:51;100898.32;;;25.28;18.83
35952;BME280;22035;51.406;16.194;2023-01-28T06:18:16;100901.90;;;25.16;18.96
35952;BME280;22035;51.406;16.194;2023-01-28T06:20:42;100906.16;;;25.21;18.91
35952;BME280;22035;51.406;16.194;2023-01-28T06:23:08;100909.33;;;25.28;18.82
35952;BME280;22035;51.406;16.194;2023-01-28T06:25:33;100915.44;;;25.22;18.88
35952;BME280;22035;51.406;16.194;2023-01-28T06:27:59;100917.15;;;25.25;18.84
35952;BME280;22035;51.406;16.194;2023-01-28T06:30:25;100921.82;;;25.23;18.86
35952;BME280;22035;51.406;16.194;2023-01-28T06:32:53;100920.41;;;25.25;18.86
35952;BME280;22035;51.406;16.194;2023-01-28T06:35:19;100925.02;;;25.24;18.86
35952;BME280;22035;51.406;16.194;2023-01-28T06:37:45;100926.21;;;25.30;18.80
35952;BME280;22035;51.406;16.194;2023-01-28T06:40:11;100922.59;;;25.23;18.86
35952;BME280;22035;51.406;16.194;2023-01-28T06:42:37;100922.62;;;25.22;18.87
35952;BME280;22035;51.406;16.194;2023-01-28T06:45:03;100919.49;;;25.22;18.88
35952;BME280;22035;51.406;16.194;2023-01-28T06:47:28;100924.18;;;25.26;18.84
35952;BME280;22035;51.406;16.194;2023-01-28T06:49:54;100921.80;;;25.25;18.85
35952;BME280;22035;51.406;16.194;2023-01-28T06:52:20;100926.47;;;25.24;18.86
35952;BME280;22035;51.406;16.194;2023-01-28T06:54:45;100925.86;;;25.18;18.90
35952;BME280;22035;51.406;16.194;2023-01-28T06:57:11;100929.95;;;25.23;18.86
35952;BME280;22035;51.406;16.194;2023-01-28T06:59:37;100929.95;;;25.21;18.88
35952;BME280;22035;51.406;16.194;2023-01-28T07:02:02;100937.98;;;25.19;18.91
35952;BME280;22035;51.406;16.194;2023-01-28T07:04:28;100939.38;;;25.20;18.91
35952;BME280;22035;51.406;16.194;2023-01-28T07:06:54;100942.48;;;25.25;18.84
35952;BME280;22035;51.406;16.194;2023-01-28T07:09:19;100945.61;;;25.19;18.90
35952;BME280;22035;51.406;16.194;2023-01-28T07:11:45;100950.14;;;25.12;18.96
35952;BME280;22035;51.406;16.194;2023-01-28T07:14:11;100952.69;;;25.20;18.90
35952;BME280;22035;51.406;16.194;2023-01-28T07:16:36;100952.99;;;25.21;18.88
35952;BME280;22035;51.406;16.194;2023-01-28T07:19:02;100946.41;;;25.18;18.91
35952;BME280;22035;51.406;16.194;2023-01-28T07:21:28;100947.06;;;25.19;18.90
35952;BME280;22035;51.406;16.194;2023-01-28T07:23:54;100946.22;;;25.20;18.88
35952;BME280;22035;51.406;16.194;2023-01-28T07:26:19;100947.06;;;25.19;18.88
35952;BME280;22035;51.406;16.194;2023-01-28T07:28:45;100948.94;;;25.16;18.92
35952;BME280;22035;51.406;16.194;2023-01-28T07:31:11;100944.00;;;25.20;18.88
35952;BME280;22035;51.406;16.194;2023-01-28T07:33:36;100946.34;;;25.12;18.95
35952;BME280;22035;51.406;16.194;2023-01-28T07:36:02;100941.56;;;25.14;18.93
35952;BME280;22035;51.406;16.194;2023-01-28T07:38:28;100943.34;;;25.17;18.89
35952;BME280;22035;51.406;16.194;2023-01-28T07:40:54;100943.62;;;25.18;18.89
35952;BME280;22035;51.406;16.194;2023-01-28T07:43:19;100933.73;;;25.20;18.86
35952;BME280;22035;51.406;16.194;2023-01-28T07:45:45;100940.69;;;25.07;18.98
35952;BME280;22035;51.406;16.194;2023-01-28T07:48:11;100944.23;;;25.14;18.92
35952;BME280;22035;51.406;16.194;2023-01-28T07:50:37;100947.31;;;25.20;18.86
35952;BME280;22035;51.406;16.194;2023-01-28T07:53:05;100951.09;;;25.16;18.92
35952;BME280;22035;51.406;16.194;2023-01-28T07:55:31;100951.95;;;25.16;18.91
35952;BME280;22035;51.406;16.194;2023-01-28T07:57:58;100948.38;;;25.15;18.92
35952;BME280;22035;51.406;16.194;2023-01-28T08:00:26;100951.81;;;25.19;18.87
35952;BME280;22035;51.406;16.194;2023-01-28T08:02:54;100955.28;;;25.20;18.86
35952;BME280;22035;51.406;16.194;2023-01-28T08:05:21;100953.42;;;25.15;18.89
35952;BME280;22035;51.406;16.194;2023-01-28T08:07:47;100955.65;;;25.19;18.84
35952;BME280;22035;51.406;16.194;2023-01-28T08:10:14;100960.12;;;25.19;18.84
35952;BME280;22035;51.406;16.194;2023-01-28T08:12:40;100962.17;;;25.18;18.86
35952;BME280;22035;51.406;16.194;2023-01-28T08:15:07;100959.93;;;25.12;18.91
35952;BME280;22035;51.406;16.194;2023-01-28T08:17:32;100957.97;;;25.14;18.88
35952;BME280;22035;51.406;16.194;2023-01-28T08:19:58;100961.05;;;25.14;18.89
35952;BME280;22035;51.406;16.194;2023-01-28T08:22:24;100959.00;;;25.12;18.88
35952;BME280;22035;51.406;16.194;2023-01-28T08:24:50;100965.44;;;25.09;18.92
35952;BME280;22035;51.406;16.194;2023-01-28T08:27:16;100971.09;;;25.10;18.91
35952;BME280;22035;51.406;16.194;2023-01-28T08:29:41;100971.64;;;25.12;18.88
35952;BME280;22035;51.406;16.194;2023-01-28T08:32:07;100967.69;;;25.05;18.94
35952;BME280;22035;51.406;16.194;2023-01-28T08:34:33;100971.27;;;25.12;18.86
35952;BME280;22035;51.406;16.194;2023-01-28T08:36:58;100962.58;;;25.13;18.84
35952;BME280;22035;51.406;16.194;2023-01-28T08:39:24;100963.02;;;25.15;18.83
35952;BME280;22035;51.406;16.194;2023-01-28T08:41:50;100967.34;;;25.17;18.80
35952;BME280;22035;51.406;16.194;2023-01-28T08:44:16;100974.81;;;25.16;18.81
35952;BME280;22035;51.406;16.194;2023-01-28T08:46:41;100977.60;;;25.15;18.82
35952;BME280;22035;51.406;16.194;2023-01-28T08:49:07;100981.62;;;25.14;18.84
35952;BME280;22035;51.406;16.194;2023-01-28T08:51:33;100981.31;;;25.08;18.88
35952;BME280;22035;51.406;16.194;2023-01-28T08:53:58;100981.97;;;25.09;18.86
35952;BME280;22035;51.406;16.194;2023-01-28T08:56:24;100984.71;;;25.15;18.79
35952;BME280;22035;51.406;16.194;2023-01-28T08:58:50;100992.37;;;25.09;18.83
35952;BME280;22035;51.406;16.194;2023-01-28T09:01:15;100996.94;;;25.07;18.87
35952;BME280;22035;51.406;16.194;2023-01-28T09:03:41;100997.67;;;25.10;18.83
35952;BME280;22035;51.406;16.194;2023-01-28T09:06:07;100998.83;;;25.15;18.79
35952;BME280;22035;51.406;16.194;2023-01-28T09:08:32;101006.03;;;25.13;18.80
35952;BME280;22035;51.406;16.194;2023-01-28T09:10:59;101005.80;;;25.04;18.87
35952;BME280;22035;51.406;16.194;2023-01-28T09:13:25;100997.93;;;25.12;18.80
35952;BME280;22035;51.406;16.194;2023-01-28T09:15:51;101004.40;;;25.13;18.78
35952;BME280;22035;51.406;16.194;2023-01-28T09:18:17;101004.82;;;25.06;18.85
35952;BME280;22035;51.406;16.194;2023-01-28T09:20:43;101009.38;;;25.10;18.80
35952;BME280;22035;51.406;16.194;2023-01-28T09:23:09;101015.32;;;25.07;18.84
35952;BME280;22035;51.406;16.194;2023-01-28T09:25:35;101015.23;;;25.09;18.81
35952;BME280;22035;51.406;16.194;2023-01-28T09:28:02;101019.28;;;25.11;18.78
35952;BME280;22035;51.406;16.194;2023-01-28T09:30:28;101021.44;;;25.09;18.81
35952;BME280;22035;51.406;16.194;2023-01-28T09:32:55;101019.97;;;25.06;18.82
35952;BME280;22035;51.406;16.194;2023-01-28T09:35:21;101014.29;;;25.11;18.78
35952;BME280;22035;51.406;16.194;2023-01-28T09:37:47;101017.64;;;25.12;18.78
35952;BME280;22035;51.406;16.194;2023-01-28T09:40:16;101019.91;;;25.13;18.76
35952;BME280;22035;51.406;16.194;2023-01-28T09:42:51;101021.36;;;25.17;18.70
35952;BME280;22035;51.406;16.194;2023-01-28T09:45:23;101019.07;;;25.06;18.81
35952;BME280;22035;51.406;16.194;2023-01-28T09:47:51;101022.07;;;25.05;18.81
35952;BME280;22035;51.406;16.194;2023-01-28T09:50:24;101021.13;;;25.04;18.83
35952;BME280;22035;51.406;16.194;2023-01-28T09:52:53;101025.08;;;25.17;18.70
35952;BME280;22035;51.406;16.194;2023-01-28T09:55:24;101029.52;;;25.09;18.75
35952;BME280;22035;51.406;16.194;2023-01-28T09:57:54;101027.49;;;25.06;18.79
35952;BME280;22035;51.406;16.194;2023-01-28T10:00:23;101024.64;;;25.08;18.78
35952;BME280;22035;51.406;16.194;2023-01-28T10:02:59;101026.41;;;25.09;18.77
35952;BME280;22035;51.406;16.194;2023-01-28T10:05:34;101022.28;;;25.04;18.81
35952;BME280;22035;51.406;16.194;2023-01-28T10:08:18;101020.60;;;25.12;18.72
35952;BME280;22035;51.406;16.194;2023-01-28T10:10:49;101027.37;;;25.05;18.79
35952;BME280;22035;51.406;16.194;2023-01-28T10:13:29;101023.85;;;25.09;18.74
35952;BME280;22035;51.406;16.194;2023-01-28T10:16:04;101029.14;;;25.13;18.69
35952;BME280;22035;51.406;16.194;2023-01-28T10:18:37;101030.15;;;25.10;18.73
35952;BME280;22035;51.406;16.194;2023-01-28T10:21:11;101032.41;;;25.10;18.75
35952;BME280;22035;51.406;16.194;2023-01-28T10:23:48;101031.66;;;25.04;18.78
35952;BME280;22035;51.406;16.194;2023-01-28T10:26:23;101027.80;;;25.10;18.72
35952;BME280;22035;51.406;16.194;2023-01-28T10:28:53;101023.94;;;25.04;18.79
35952;BME280;22035;51.406;16.194;2023-01-28T10:31:20;101018.01;;;25.07;18.76
35952;BME280;22035;51.406;16.194;2023-01-28T10:33:46;101017.55;;;25.09;18.74
35952;BME280;22035;51.406;16.194;2023-01-28T10:36:13;101015.90;;;25.10;18.73
35952;BME280;22035;51.406;16.194;2023-01-28T10:38:40;101020.28;;;25.05;18.77
35952;BME280;22035;51.406;16.194;2023-01-28T10:41:05;101019.55;;;25.07;18.77
35952;BME280;22035;51.406;16.194;2023-01-28T10:43:33;101018.59;;;25.07;18.75
35952;BME280;22035;51.406;16.194;2023-01-28T10:46:03;101020.07;;;24.98;18.86
35952;BME280;22035;51.406;16.194;2023-01-28T10:48:32;101022.57;;;25.01;18.83
35952;BME280;22035;51.406;16.194;2023-01-28T10:51:00;101022.37;;;25.05;18.78
35952;BME280;22035;51.406;16.194;2023-01-28T10:53:35;101028.04;;;25.04;18.79
35952;BME280;22035;51.406;16.194;2023-01-28T10:56:04;101029.24;;;25.06;18.78
35952;BME280;22035;51.406;16.194;2023-01-28T10:58:35;101031.43;;;25.07;18.76
35952;BME280;22035;51.406;16.194;2023-01-28T11:01:04;101031.13;;;25.06;18.78
35952;BME280;22035;51.406;16.194;2023-01-28T11:03:31;101033.54;;;25.02;18.82
35952;BME280;22035;51.406;16.194;2023-01-28T11:05:58;101038.45;;;25.05;18.79
35952;BME280;22035;51.406;16.194;2023-01-28T11:08:25;101046.07;;;25.04;18.78
35952;BME280;22035;51.406;16.194;2023-01-28T11:10:53;101043.55;;;24.97;18.86
35952;BME280;22035;51.406;16.194;2023-01-28T11:13:21;101039.70;;;24.99;18.82
35952;BME280;22035;51.406;16.194;2023-01-28T11:15:48;101040.42;;;25.09;18.74
35952;BME280;22035;51.406;16.194;2023-01-28T11:18:17;101041.74;;;25.08;18.74
35952;BME280;22035;51.406;16.194;2023-01-28T11:20:50;101042.42;;;25.05;18.75
35952;BME280;22035;51.406;16.194;2023-01-28T11:23:18;101043.32;;;25.07;18.74
35952;BME280;22035;51.406;16.194;2023-01-28T11:25:46;101045.34;;;25.03;18.64
35952;BME280;22035;51.406;16.194;2023-01-28T11:28:24;101045.37;;;25.02;18.78
35952;BME280;22035;51.406;16.194;2023-01-28T11:30:52;101043.99;;;25.03;18.77
35952;BME280;22035;51.406;16.194;2023-01-28T11:33:23;101042.43;;;25.04;18.77
35952;BME280;22035;51.406;16.194;2023-01-28T11:35:55;101042.17;;;25.06;18.75
35952;BME280;22035;51.406;16.194;2023-01-28T11:38:23;101039.92;;;25.09;18.80
35952;BME280;22035;51.406;16.194;2023-01-28T11:40:50;101042.48;;;25.03;18.77
35952;BME280;22035;51.406;16.194;2023-01-28T11:43:16;101043.25;;;25.04;18.75
35952;BME280;22035;51.406;16.194;2023-01-28T11:45:45;101038.88;;;25.03;18.75
35952;BME280;22035;51.406;16.194;2023-01-28T11:48:23;101035.46;;;25.08;18.71
35952;BME280;22035;51.406;16.194;2023-01-28T11:51:00;101038.45;;;25.03;18.80
35952;BME280;22035;51.406;16.194;2023-01-28T11:53:40;101036.12;;;25.03;18.77
35952;BME280;22035;51.406;16.194;2023-01-28T11:56:20;101034.86;;;25.03;18.76
35952;BME280;22035;51.406;16.194;2023-01-28T11:58:57;101035.55;;;25.07;18.70
35952;BME280;22035;51.406;16.194;2023-01-28T12:01:35;101032.59;;;25.10;18.68
35952;BME280;22035;51.406;16.194;2023-01-28T12:04:20;101033.02;;;25.12;18.66
35952;BME280;22035;51.406;16.194;2023-01-28T12:07:01;101038.00;;;25.07;18.70
35952;BME280;22035;51.406;16.194;2023-01-28T12:09:34;101039.13;;;25.04;18.73
35952;BME280;22035;51.406;16.194;2023-01-28T12:12:14;101037.16;;;25.10;18.66
35952;BME280;22035;51.406;16.194;2023-01-28T12:14:59;101035.18;;;25.05;18.73
35952;BME280;22035;51.406;16.194;2023-01-28T12:17:35;101033.47;;;25.07;18.70
35952;BME280;22035;51.406;16.194;2023-01-28T12:20:11;101032.04;;;25.08;18.69
35952;BME280;22035;51.406;16.194;2023-01-28T12:23:05;101028.25;;;25.05;18.71
35952;BME280;22035;51.406;16.194;2023-01-28T12:25:41;101021.54;;;25.05;18.70
35952;BME280;22035;51.406;16.194;2023-01-28T12:28:16;101025.00;;;25.03;18.72
35952;BME280;22035;51.406;16.194;2023-01-28T12:30:56;101025.66;;;25.05;18.69
35952;BME280;22035;51.406;16.194;2023-01-28T12:33:39;101021.58;;;25.07;18.69
35952;BME280;22035;51.406;16.194;2023-01-28T12:36:18;101021.21;;;25.02;18.73
35952;BME280;22035;51.406;16.194;2023-01-28T12:38:56;101022.99;;;25.07;18.68
35952;BME280;22035;51.406;16.194;2023-01-28T12:41:30;101022.15;;;25.05;18.69
35952;BME280;22035;51.406;16.194;2023-01-28T12:43:59;101016.08;;;25.07;18.67
35952;BME280;22035;51.406;16.194;2023-01-28T12:46:36;101024.86;;;25.02;18.72